Time;durP1;ratioP1;P1;durP2;ratioP2;P2;SDS_P1;SDS_P2;PMS_P1;PMS_P2;Temp;Humidity;BMP_temperature;BMP_pressure;BME280_temperature;BME280_humidity;BME280_pressure;Samples;Min_cycle;Max_cycle;Signal;HPM_P1;HPM_P2
2022/08/13 00:01:11;;;;;;;8.18;5.18;;;;;;;23.45;62.47;100501.09;2101919;28;20045;-75
2022/08/13 00:02:33;;;;;;;11.95;6.18;;;;;;;23.45;62.38;100503.81;2106788;28;20071;-74
2022/08/13 00:03:57;;;;;;;10.90;6.13;;;;;;;23.45;62.38;100503.81;2105650;28;20064;-75
2022/08/13 00:05:24;;;;;;;12.30;6.47;;;;;;;23.41;62.17;100504.88;2102948;28;20048;-75
2022/08/13 00:08:27;;;;;;;8.88;5.97;;;;;;;23.35;62.79;100499.75;2094697;28;20139;-74
2022/08/13 00:09:50;;;;;;;15.05;6.13;;;;;;;23.40;62.20;100495.03;2108441;28;20055;-74
2022/08/13 00:12:56;;;;;;;10.45;5.72;;;;;;;23.40;62.13;100490.53;2105280;28;20158;-74
2022/08/13 00:12:57;;;;;;;9.73;5.63;;;;;;;23.40;62.18;100492.34;2105648;28;20048;-74
2022/08/13 00:14:22;;;;;;;11.13;6.15;;;;;;;23.43;62.10;100494.94;2105591;28;20047;-75
2022/08/13 00:15:46;;;;;;;10.05;5.68;;;;;;;23.37;62.21;100495.16;2106057;28;20078;-74
2022/08/13 00:17:12;;;;;;;9.23;5.47;;;;;;;23.24;62.70;100489.41;2094498;28;20551;-75
2022/08/13 00:18:38;;;;;;;11.65;6.45;;;;;;;23.10;63.10;100491.78;2102682;28;20362;-75
2022/08/13 00:19:59;;;;;;;13.02;5.43;;;;;;;23.07;63.41;100491.03;2104920;28;20104;-75
2022/08/13 00:21:23;;;;;;;11.23;5.90;;;;;;;22.96;63.50;100491.47;2105390;28;20036;-75
2022/08/13 00:22:45;;;;;;;9.98;5.15;;;;;;;22.77;64.02;100491.31;2088827;28;20045;-75
2022/08/13 00:24:09;;;;;;;9.70;5.78;;;;;;;22.71;64.35;100486.09;2108239;28;20376;-75
2022/08/13 00:25:32;;;;;;;10.23;5.90;;;;;;;22.74;64.34;100487.84;2122268;27;20073;-74
2022/08/13 00:26:53;;;;;;;9.88;5.30;;;;;;;22.55;64.65;100484.97;2108082;28;20075;-75
2022/08/13 00:28:19;;;;;;;10.68;5.35;;;;;;;22.44;65.12;100479.13;2110932;28;20059;-75
2022/08/13 00:29:42;;;;;;;9.82;5.25;;;;;;;22.51;65.07;100486.88;2097291;28;20150;-74
2022/08/13 00:31:05;;;;;;;7.60;5.60;;;;;;;22.51;64.98;100488.72;2092350;28;20465;-74
2022/08/13 00:32:29;;;;;;;9.63;6.10;;;;;;;22.20;65.44;100481.75;2116923;27;20059;-74
2022/08/13 00:33:54;;;;;;;10.52;6.18;;;;;;;22.02;66.16;100477.06;2098151;28;20071;-75
2022/08/13 00:35:18;;;;;;;10.93;6.07;;;;;;;22.13;66.03;100480.22;2102853;28;20063;-75
2022/08/13 00:36:41;;;;;;;11.30;6.15;;;;;;;22.31;65.62;100483.19;2119469;27;20494;-75
2022/08/13 00:38:05;;;;;;;8.68;5.97;;;;;;;22.40;65.33;100482.84;2099416;28;20049;-74
2022/08/13 00:39:29;;;;;;;10.82;6.63;;;;;;;22.53;64.86;100478.75;2092009;28;20515;-75
2022/08/13 00:40:53;;;;;;;11.95;5.75;;;;;;;22.65;64.17;100473.78;2099612;28;20052;-74
2022/08/13 00:42:20;;;;;;;9.30;5.30;;;;;;;22.71;63.88;100469.97;2094671;28;20143;-74
2022/08/13 00:43:43;;;;;;;8.48;5.72;;;;;;;22.66;63.96;100470.16;2095006;28;20055;-74
2022/08/13 00:45:06;;;;;;;12.80;6.25;;;;;;;22.63;64.04;100475.66;2099556;28;20543;-75
2022/08/13 00:46:29;;;;;;;9.70;6.40;;;;;;;22.59;64.29;100467.75;2111326;28;20051;-74
2022/08/13 00:49:31;;;;;;;10.07;6.13;;;;;;;22.27;65.21;100461.78;2113293;28;20046;-74
2022/08/13 00:50:56;;;;;;;12.02;6.25;;;;;;;22.40;64.78;100464.88;2105342;28;20064;-74
2022/08/13 00:52:18;;;;;;;17.27;6.72;;;;;;;22.54;64.26;100475.13;2119514;27;20082;-74
2022/08/13 00:53:40;;;;;;;11.25;6.25;;;;;;;22.60;63.92;100469.50;2098329;28;20494;-75
2022/08/13 00:55:07;;;;;;;11.20;6.07;;;;;;;22.60;63.86;100464.13;2110959;28;20048;-75
2022/08/13 00:56:34;;;;;;;11.48;5.93;;;;;;;22.57;64.02;100464.25;2107743;28;20032;-74
2022/08/13 00:57:58;;;;;;;10.38;6.07;;;;;;;22.53;64.13;100467.97;2103095;28;20151;-75
2022/08/13 00:59:20;;;;;;;11.07;5.65;;;;;;;22.45;64.42;100464.72;2088173;28;20045;-75
2022/08/13 01:00:42;;;;;;;10.90;6.05;;;;;;;22.46;64.44;100461.97;2091548;28;20106;-74
2022/08/13 01:02:04;;;;;;;9.95;6.03;;;;;;;22.55;64.23;100453.53;2085869;28;20520;-74
2022/08/13 01:03:29;;;;;;;9.93;5.70;;;;;;;22.65;63.83;100463.00;2091593;28;20052;-74
2022/08/13 01:04:51;;;;;;;11.55;6.03;;;;;;;22.71;63.71;100467.25;2086208;28;20555;-74
2022/08/13 01:06:13;;;;;;;8.13;5.72;;;;;;;22.75;63.68;100457.31;2099171;28;20044;-74
2022/08/13 01:07:37;;;;;;;10.85;5.97;;;;;;;22.77;63.68;100461.72;2105189;28;20043;-74
2022/08/13 01:08:59;;;;;;;9.82;6.00;;;;;;;22.78;63.45;100458.06;2096618;28;20103;-74
2022/08/13 01:10:24;;;;;;;10.75;5.90;;;;;;;22.76;63.31;100456.38;2093935;28;20135;-74
2022/08/13 01:11:47;;;;;;;11.35;6.15;;;;;;;22.57;63.84;100449.00;2098433;28;20051;-75
2022/08/13 01:13:13;;;;;;;11.68;6.45;;;;;;;22.46;64.09;100450.31;2102244;28;20143;-74
2022/08/13 01:14:35;;;;;;;10.80;6.10;;;;;;;22.29;64.62;100447.41;2119566;27;20038;-74
2022/08/13 01:15:58;;;;;;;8.32;5.88;;;;;;;22.18;65.08;100442.44;2107724;28;20036;-74
2022/08/13 01:17:22;;;;;;;12.48;6.53;;;;;;;22.08;65.32;100443.69;2105007;28;20056;-73
2022/08/13 01:18:47;;;;;;;10.18;5.80;;;;;;;22.00;65.51;100443.09;2119162;27;20039;-74
2022/08/13 01:20:09;;;;;;;11.63;6.82;;;;;;;21.99;65.57;100450.28;2107203;28;20055;-74
2022/08/13 01:21:35;;;;;;;8.80;6.25;;;;;;;21.97;65.49;100449.47;2093985;28;20107;-74
2022/08/13 01:22:58;;;;;;;10.07;5.68;;;;;;;21.86;65.93;100446.25;2116518;27;20113;-74
2022/08/13 01:24:21;;;;;;;9.82;5.30;;;;;;;21.80;65.93;100449.16;2099107;28;20052;-75
2022/08/13 01:25:45;;;;;;;12.32;6.80;;;;;;;21.64;66.37;100454.19;2102265;28;20041;-74
2022/08/13 01:27:08;;;;;;;12.50;5.75;;;;;;;21.45;66.94;100453.06;2117081;27;20126;-74
2022/08/13 01:28:29;;;;;;;8.95;5.35;;;;;;;21.27;67.26;100451.88;2107507;28;20075;-74
2022/08/13 01:29:52;;;;;;;10.18;5.45;;;;;;;21.11;67.69;100444.34;2102300;28;20047;-74
2022/08/13 01:31:18;;;;;;;10.68;5.60;;;;;;;21.00;67.97;100450.09;2119122;27;20446;-74
2022/08/13 01:32:41;;;;;;;8.85;6.13;;;;;;;20.90;68.21;100448.59;2106123;28;20051;-74
2022/08/13 01:34:03;;;;;;;13.10;6.38;;;;;;;20.85;68.36;100450.56;2101897;28;20055;-75
2022/08/13 01:35:26;;;;;;;13.52;6.07;;;;;;;20.82;68.36;100454.19;2101965;28;20393;-74
2022/08/13 01:36:50;;;;;;;10.23;5.75;;;;;;;20.86;68.23;100452.31;2110842;28;20047;-74
2022/08/13 01:38:13;;;;;;;8.23;5.70;;;;;;;20.94;67.97;100455.63;2104982;28;20097;-74
2022/08/13 01:39:37;;;;;;;8.07;6.00;;;;;;;21.04;67.52;100451.72;2110620;28;20051;-74
2022/08/13 01:41:00;;;;;;;12.15;6.80;;;;;;;21.08;67.57;100456.94;2104695;28;20089;-74
2022/08/13 01:42:22;;;;;;;14.77;6.32;;;;;;;21.27;67.02;100456.34;2110898;28;20139;-74
2022/08/13 01:43:45;;;;;;;10.68;6.50;;;;;;;21.46;66.17;100461.06;2120730;27;20073;-74
2022/08/13 01:45:09;;;;;;;10.23;5.93;;;;;;;21.56;65.72;100463.44;2099200;28;20055;-74
2022/08/13 01:50:28;;;;;;;11.48;6.68;;;;;;;21.41;65.90;100465.72;2110708;28;20769;-74
2022/08/13 01:51:38;;;;;;;12.85;6.28;;;;;;;21.58;65.64;100464.28;2103568;28;20454;-74
2022/08/13 01:53:02;;;;;;;12.35;6.13;;;;;;;21.68;65.15;100466.59;2102351;28;20517;-74
2022/08/13 01:54:25;;;;;;;14.60;6.38;;;;;;;21.73;64.94;100458.34;2110673;28;20628;-74
2022/08/13 01:55:52;;;;;;;11.60;7.28;;;;;;;21.80;64.82;100454.53;2104692;28;20086;-74
2022/08/13 01:57:13;;;;;;;10.82;6.60;;;;;;;21.91;64.58;100454.16;2102762;28;20576;-75
2022/08/13 01:58:36;;;;;;;10.73;6.38;;;;;;;21.93;64.49;100460.34;2101916;28;20040;-74
2022/08/13 01:59:59;;;;;;;11.75;6.20;;;;;;;21.88;64.67;100452.44;2104261;28;20067;-74
2022/08/13 02:01:25;;;;;;;11.25;6.00;;;;;;;21.88;64.77;100450.63;2110362;28;20047;-74
2022/08/13 02:02:48;;;;;;;9.55;6.28;;;;;;;21.92;64.62;100458.59;2101313;28;20059;-74
2022/08/13 02:04:11;;;;;;;11.95;6.30;;;;;;;21.90;64.57;100460.47;2102072;28;20079;-74
2022/08/13 02:05:36;;;;;;;9.80;6.85;;;;;;;21.80;64.66;100458.09;2093980;28;20052;-74
2022/08/13 02:07:00;;;;;;;10.60;5.90;;;;;;;21.65;65.28;100458.66;2099954;28;20071;-74
2022/08/13 02:08:26;;;;;;;8.57;6.18;;;;;;;21.48;65.97;100464.59;2102055;28;20063;-74
2022/08/13 02:09:48;;;;;;;13.07;6.05;;;;;;;21.42;66.21;100461.22;2102230;28;20417;-74
2022/08/13 02:11:11;;;;;;;8.65;5.80;;;;;;;21.35;66.32;100462.34;2093539;28;20051;-74
2022/08/13 02:12:33;;;;;;;7.85;5.38;;;;;;;21.24;66.61;100469.91;2096356;28;20118;-74
2022/08/13 02:13:57;;;;;;;9.15;5.57;;;;;;;21.13;67.12;100466.66;2095404;28;20147;-74
2022/08/13 02:15:19;;;;;;;9.77;5.57;;;;;;;21.05;67.07;100466.91;2107353;28;20044;-74
2022/08/13 02:16:41;;;;;;;7.72;5.70;;;;;;;21.00;67.35;100468.88;2121365;28;20095;-74
2022/08/13 02:18:03;;;;;;;14.85;6.50;;;;;;;20.94;67.50;100469.03;2107286;28;20097;-74
2022/08/13 02:19:26;;;;;;;11.25;5.97;;;;;;;20.92;67.74;100469.09;2101789;28;20607;-74
2022/08/13 02:20:51;;;;;;;10.43;5.80;;;;;;;20.92;67.67;100463.75;2110658;28;20138;-74
2022/08/13 02:22:17;;;;;;;12.95;5.82;;;;;;;20.89;67.54;100479.03;2104701;28;20120;-74
2022/08/13 02:23:42;;;;;;;10.90;5.97;;;;;;;20.88;67.59;100472.78;2117751;28;20043;-73
2022/08/13 02:25:04;;;;;;;9.10;5.70;;;;;;;20.87;67.77;100471.03;2090336;28;20045;-74
2022/08/13 02:26:28;;;;;;;10.68;5.32;;;;;;;20.98;67.44;100468.03;2111237;28;20046;-75
2022/08/13 02:27:55;;;;;;;10.15;5.97;;;;;;;21.08;67.44;100467.66;2106885;28;20389;-74
2022/08/13 02:29:18;;;;;;;10.40;6.10;;;;;;;21.18;67.33;100460.25;2103697;28;20106;-74
2022/08/13 02:30:41;;;;;;;12.32;6.03;;;;;;;21.32;67.00;100466.03;2110470;28;20048;-74
2022/08/13 02:32:02;;;;;;;12.00;5.60;;;;;;;21.40;66.58;100463.06;2104341;28;20147;-74
2022/08/13 02:33:26;;;;;;;10.35;5.88;;;;;;;21.47;66.92;100462.81;2093390;28;20369;-74
2022/08/13 02:34:50;;;;;;;10.32;6.32;;;;;;;21.55;66.63;100469.75;2115808;28;20087;-74
2022/08/13 02:36:13;;;;;;;8.73;5.78;;;;;;;21.50;66.37;100469.03;2111914;28;20039;-74
2022/08/13 02:37:37;;;;;;;10.70;5.78;;;;;;;21.24;66.84;100470.78;2112791;28;20040;-74
2022/08/13 02:39:02;;;;;;;10.43;6.13;;;;;;;20.99;67.12;100475.16;2119127;28;20051;-73
2022/08/13 02:42:05;;;;;;;11.07;5.70;;;;;;;20.69;68.13;100471.59;2109727;28;20144;-74
2022/08/13 02:43:26;;;;;;;9.90;5.57;;;;;;;20.67;68.29;100473.47;2102222;28;20117;-74
2022/08/13 02:44:51;;;;;;;9.95;5.85;;;;;;;20.64;68.40;100474.44;2120216;27;20075;-74
2022/08/13 02:46:14;;;;;;;10.82;5.70;;;;;;;20.59;68.50;100468.34;2100121;28;20139;-74
2022/08/13 02:47:37;;;;;;;9.88;5.43;;;;;;;20.59;68.42;100468.34;2092926;28;20044;-73
2022/08/13 02:48:58;;;;;;;10.95;5.75;;;;;;;20.57;68.68;100478.22;2100053;28;20393;-74
2022/08/13 02:50:22;;;;;;;9.85;5.65;;;;;;;20.58;68.67;100469.25;2103367;28;20048;-74
2022/08/13 02:51:47;;;;;;;10.55;6.00;;;;;;;20.57;68.58;100466.63;2111736;28;20079;-74
2022/08/13 02:53:09;;;;;;;9.85;5.50;;;;;;;20.50;68.57;100471.28;2116904;27;20047;-73
2022/08/13 02:54:34;;;;;;;8.27;5.68;;;;;;;20.46;68.58;100471.44;2108511;28;20216;-74
2022/08/13 02:55:57;;;;;;;9.82;5.47;;;;;;;20.41;68.52;100468.91;2103742;28;20412;-74
2022/08/13 02:57:21;;;;;;;9.05;6.30;;;;;;;20.39;68.73;100476.09;2120225;27;20046;-74
2022/08/13 02:58:45;;;;;;;10.50;5.80;;;;;;;20.40;68.65;100474.28;2108129;28;20036;-74
2022/08/13 03:00:09;;;;;;;12.43;5.93;;;;;;;20.54;68.58;100472.97;2104963;28;20040;-74
2022/08/13 03:01:34;;;;;;;11.82;5.97;;;;;;;20.71;68.16;100468.88;2099731;28;20145;-74
2022/08/13 03:02:56;;;;;;;10.27;6.15;;;;;;;20.87;67.71;100476.41;2095182;28;20116;-74
2022/08/13 03:04:19;;;;;;;12.40;6.13;;;;;;;20.93;67.42;100472.66;2095140;28;20052;-73
2022/08/13 03:05:42;;;;;;;11.93;6.28;;;;;;;20.97;67.08;100471.63;2094766;28;20551;-75
2022/08/13 03:07:04;;;;;;;9.68;5.93;;;;;;;20.98;67.25;100468.91;2102922;28;20059;-74
2022/08/13 03:08:28;;;;;;;12.27;6.68;;;;;;;21.09;67.10;100466.75;2103286;28;20078;-75
2022/08/13 03:09:52;;;;;;;10.88;6.30;;;;;;;21.25;66.65;100471.66;2103316;28;20052;-74
2022/08/13 03:11:14;;;;;;;9.73;5.90;;;;;;;21.31;66.10;100469.66;2103356;28;20079;-74
2022/08/13 03:12:37;;;;;;;11.35;5.68;;;;;;;21.29;66.11;100466.13;2108877;28;20067;-74
2022/08/13 03:14:05;;;;;;;10.23;5.45;;;;;;;21.16;66.61;100470.16;2110219;28;20052;-74
2022/08/13 03:15:28;;;;;;;7.95;5.68;;;;;;;21.19;67.04;100466.50;2112304;28;20069;-74
2022/08/13 03:16:50;;;;;;;8.65;5.35;;;;;;;21.30;67.12;100473.25;2103485;28;20143;-74
2022/08/13 03:18:12;;;;;;;10.15;5.30;;;;;;;21.42;66.72;100472.84;2103028;28;20054;-74
2022/08/13 03:19:34;;;;;;;9.23;5.55;;;;;;;21.45;66.63;100470.06;2096752;28;20052;-74
2022/08/13 03:20:55;;;;;;;13.27;6.30;;;;;;;21.48;66.91;100472.66;2100670;28;20086;-74
2022/08/13 03:22:18;;;;;;;8.32;5.38;;;;;;;21.56;66.66;100476.88;2088970;28;20136;-74
2022/08/13 03:23:39;;;;;;;10.73;6.00;;;;;;;21.41;66.54;100467.53;2100600;28;20054;-74
2022/08/13 03:25:04;;;;;;;8.68;4.95;;;;;;;21.20;67.20;100473.63;2097688;28;20072;-74
2022/08/13 03:26:25;;;;;;;11.90;5.20;;;;;;;21.11;67.52;100466.72;2096664;28;20048;-74
2022/08/13 03:27:48;;;;;;;9.45;4.60;;;;;;;21.12;67.91;100468.47;2107602;28;20074;-74
2022/08/13 03:29:10;;;;;;;7.28;5.10;;;;;;;21.24;67.88;100480.63;2111753;28;20056;-74
2022/08/13 03:30:34;;;;;;;12.07;6.70;;;;;;;21.32;67.33;100479.47;2110306;28;20042;-74
2022/08/13 03:31:55;;;;;;;10.38;5.55;;;;;;;21.33;66.99;100478.53;2094693;28;20056;-74
2022/08/13 03:33:17;;;;;;;9.88;5.78;;;;;;;21.34;67.04;100482.09;2110909;28;20084;-74
2022/08/13 03:34:39;;;;;;;13.88;6.03;;;;;;;21.39;66.91;100485.53;2099873;28;20094;-74
2022/08/13 03:36:01;;;;;;;13.90;6.05;;;;;;;21.44;66.91;100484.44;2106700;27;20376;-74
2022/08/13 03:37:25;;;;;;;10.48;5.55;;;;;;;21.53;66.60;100490.44;2097070;28;20048;-74
2022/08/13 03:38:48;;;;;;;10.90;5.50;;;;;;;21.53;66.64;100483.22;2103087;28;20048;-74
2022/08/13 03:40:12;;;;;;;9.18;4.60;;;;;;;21.60;67.04;100486.56;2100419;28;20140;-74
2022/08/13 03:41:34;;;;;;;16.05;5.63;;;;;;;21.67;66.86;100485.44;2109405;28;20043;-74
2022/08/13 03:43:08;;;;;;;12.20;5.60;;;;;;;21.67;66.58;100485.44;2102693;28;20068;-73
2022/08/13 03:44:30;;;;;;;11.07;5.22;;;;;;;21.68;66.68;100482.72;2121422;27;20499;-74
2022/08/13 03:45:54;;;;;;;11.00;5.65;;;;;;;21.68;66.79;100481.81;2099546;28;20041;-74
2022/08/13 03:47:16;;;;;;;10.00;4.97;;;;;;;21.74;67.09;100481.63;2102652;28;20052;-74
2022/08/13 03:48:39;;;;;;;8.63;4.85;;;;;;;21.80;67.05;100481.41;2113948;28;20062;-74
2022/08/13 03:50:03;;;;;;;12.38;5.38;;;;;;;21.86;66.93;100491.94;2100107;28;20152;-74
2022/08/13 03:51:26;;;;;;;9.65;4.50;;;;;;;21.84;66.98;100485.75;2094851;28;20122;-75
2022/08/13 03:52:47;;;;;;;7.18;4.60;;;;;;;21.86;67.29;100486.56;2116417;27;20035;-74
2022/08/13 03:54:09;;;;;;;9.60;5.00;;;;;;;21.78;67.38;100496.72;2107878;28;20086;-74
2022/08/13 03:55:33;;;;;;;8.60;4.57;;;;;;;21.75;67.63;100494.13;2108220;28;20046;-74
2022/08/13 03:56:56;;;;;;;5.90;4.07;;;;;;;21.86;67.69;100500.00;2105022;28;20484;-74
2022/08/13 03:58:17;;;;;;;10.10;4.55;;;;;;;22.04;67.49;100504.78;2102807;28;20126;-74
2022/08/13 03:59:40;;;;;;;8.00;4.03;;;;;;;22.20;67.02;100497.91;2100727;28;20043;-73
2022/08/13 04:01:04;;;;;;;12.07;4.80;;;;;;;22.32;66.75;100496.56;2093270;28;20135;-74
2022/08/13 04:02:28;;;;;;;13.10;5.78;;;;;;;22.44;66.50;100498.81;2117769;27;20050;-74
2022/08/13 04:03:50;;;;;;;13.30;4.68;;;;;;;22.54;66.26;100500.22;2106884;28;20104;-74
2022/08/13 04:05:16;;;;;;;7.18;4.28;;;;;;;22.62;65.93;100499.94;2112401;27;20058;-74
2022/08/13 04:06:38;;;;;;;8.98;4.32;;;;;;;22.67;66.14;100498.81;2107745;28;20047;-74
2022/08/13 04:08:00;;;;;;;9.63;4.82;;;;;;;22.78;66.04;100511.88;2119359;27;20047;-74
2022/08/13 04:09:23;;;;;;;7.55;4.40;;;;;;;22.88;65.98;100513.31;2108345;28;20055;-74
2022/08/13 04:10:47;;;;;;;9.20;4.05;;;;;;;22.96;65.82;100516.59;2119797;27;20062;-74
2022/08/13 04:12:12;;;;;;;8.68;4.28;;;;;;;22.94;66.00;100514.88;2108005;28;20079;-74
2022/08/13 04:13:36;;;;;;;12.07;4.05;;;;;;;23.03;65.74;100518.09;2119849;27;20050;-73
2022/08/13 04:14:59;;;;;;;7.25;3.85;;;;;;;23.15;65.76;100513.16;2099117;28;20056;-74
2022/08/13 04:16:23;;;;;;;9.38;4.15;;;;;;;23.30;65.70;100515.22;2118346;27;20039;-74
2022/08/13 04:17:45;;;;;;;8.93;3.60;;;;;;;23.35;65.61;100515.91;2116392;27;20047;-74
2022/08/13 04:19:09;;;;;;;8.40;3.88;;;;;;;23.45;65.71;100509.19;2102688;28;20059;-73
2022/08/13 04:20:31;;;;;;;7.13;4.28;;;;;;;23.61;66.04;100512.16;2096807;28;20131;-74
2022/08/13 04:21:54;;;;;;;7.70;3.53;;;;;;;23.76;65.79;100517.78;2117142;27;20061;-74
2022/08/13 04:23:16;;;;;;;9.68;3.70;;;;;;;23.89;65.67;100515.47;2108003;28;20071;-74
2022/08/13 04:24:39;;;;;;;11.70;4.00;;;;;;;24.04;65.64;100520.16;2119747;27;20165;-74
2022/08/13 04:26:02;;;;;;;9.02;3.70;;;;;;;24.17;65.42;100515.97;2108129;28;20143;-75
2022/08/13 04:27:24;;;;;;;10.68;3.67;;;;;;;24.29;65.09;100522.69;2119740;27;20051;-74
2022/08/13 04:28:47;;;;;;;10.60;5.05;;;;;;;24.41;64.98;100526.66;2098515;28;20052;-74
2022/08/13 04:30:09;;;;;;;7.72;3.22;;;;;;;24.49;64.87;100517.25;2118262;27;20051;-74
2022/08/13 04:31:32;;;;;;;7.78;3.35;;;;;;;24.48;64.28;100522.75;2113594;28;20139;-74
2022/08/13 04:32:53;;;;;;;12.32;3.58;;;;;;;24.50;64.71;100516.31;2102628;28;20104;-74
2022/08/13 04:34:16;;;;;;;10.05;4.15;;;;;;;24.60;64.78;100520.38;2096482;28;20068;-74
2022/08/13 04:35:40;;;;;;;6.75;4.43;;;;;;;24.67;64.38;100520.09;2108775;28;20372;-74
2022/08/13 04:37:01;;;;;;;7.00;2.85;;;;;;;24.77;64.48;100516.00;2110914;28;20139;-74
2022/08/13 04:38:24;;;;;;;8.20;3.22;;;;;;;24.90;64.21;100517.19;2113845;28;20607;-73
2022/08/13 04:39:45;;;;;;;9.50;3.50;;;;;;;24.97;63.48;100522.25;2102555;28;20139;-74
2022/08/13 04:41:10;;;;;;;6.82;2.83;;;;;;;25.06;63.42;100515.53;2108048;28;20063;-74
2022/08/13 04:42:44;;;;;;;5.35;3.10;;;;;;;25.22;62.68;100511.13;2105760;28;20141;-73
2022/08/13 04:44:06;;;;;;;6.18;3.10;;;;;;;25.35;62.29;100509.56;2104220;28;20040;-73
2022/08/13 04:45:29;;;;;;;7.43;3.08;;;;;;;25.45;62.25;100509.13;2094096;28;20047;-74
2022/08/13 04:46:51;;;;;;;6.15;3.25;;;;;;;25.58;61.65;100513.00;2091876;28;20147;-74
2022/08/13 04:48:16;;;;;;;6.70;2.85;;;;;;;25.72;61.37;100507.78;2102385;28;20126;-72
2022/08/13 04:49:37;;;;;;;6.47;2.85;;;;;;;25.88;61.10;100513.25;2094312;28;20106;-74
2022/08/13 04:51:00;;;;;;;5.25;2.60;;;;;;;26.04;60.82;100509.69;2098141;28;20048;-74
2022/08/13 04:52:23;;;;;;;8.45;3.00;;;;;;;26.24;60.27;100511.38;2102587;28;20086;-74
2022/08/13 04:53:45;;;;;;;8.27;2.95;;;;;;;26.38;59.97;100507.94;2101547;28;20105;-73
2022/08/13 04:55:10;;;;;;;5.55;2.78;;;;;;;26.54;59.61;100506.13;2105240;28;20048;-74
2022/08/13 04:56:34;;;;;;;6.45;2.80;;;;;;;26.72;59.06;100515.06;2103120;28;20058;-74
2022/08/13 04:57:56;;;;;;;8.20;2.90;;;;;;;26.90;58.82;100512.28;2098967;28;20052;-74
2022/08/13 04:59:20;;;;;;;7.18;2.92;;;;;;;27.11;58.19;100506.63;2094222;28;20118;-75
2022/08/13 05:00:44;;;;;;;10.13;4.32;;;;;;;27.27;57.70;100507.47;2094416;28;20056;-73
2022/08/13 05:02:05;;;;;;;5.60;2.83;;;;;;;27.43;57.43;100510.19;2104023;28;20031;-74
2022/08/13 05:03:29;;;;;;;8.23;2.83;;;;;;;27.59;56.78;100509.22;2110876;28;20130;-74
2022/08/13 05:04:50;;;;;;;5.95;2.88;;;;;;;27.72;56.03;100507.53;2104241;28;20075;-74
2022/08/13 05:06:19;;;;;;;6.63;2.53;;;;;;;27.86;55.24;100511.25;2102402;28;20048;-74
2022/08/13 05:07:41;;;;;;;7.07;3.05;;;;;;;28.02;54.77;100507.53;2103293;28;20093;-74
2022/08/13 05:09:04;;;;;;;3.35;2.20;;;;;;;28.22;54.40;100509.06;2102423;28;20111;-73
2022/08/13 05:10:25;;;;;;;4.88;2.25;;;;;;;28.41;54.27;100506.97;2102574;28;20047;-74
2022/08/13 05:11:49;;;;;;;5.18;2.42;;;;;;;28.57;53.40;100504.13;2093759;28;20048;-74
2022/08/13 05:13:26;;;;;;;7.13;2.53;;;;;;;28.73;52.37;100517.63;2102295;28;20092;-74
2022/08/13 05:14:47;;;;;;;3.88;2.40;;;;;;;28.84;51.33;100498.81;2088340;28;20048;-74
2022/08/13 05:16:11;;;;;;;3.53;2.47;;;;;;;28.85;49.63;100506.00;2094040;28;20503;-74
2022/08/13 05:17:33;;;;;;;7.47;2.70;;;;;;;28.85;49.22;100501.44;2110654;28;20040;-74
2022/08/13 05:18:56;;;;;;;7.20;2.63;;;;;;;28.90;48.58;100503.84;2104595;28;20702;-74
2022/08/13 05:20:17;;;;;;;6.70;2.80;;;;;;;29.04;48.18;100501.13;2108380;28;20392;-74
2022/08/13 05:21:41;;;;;;;3.33;2.15;;;;;;;29.20;47.69;100499.16;2106422;28;20071;-74
2022/08/13 05:23:09;;;;;;;6.18;3.10;;;;;;;29.36;47.51;100500.88;2101526;28;20056;-74
2022/08/13 05:24:32;;;;;;;5.97;2.45;;;;;;;29.47;47.36;100501.91;2096920;28;20508;-74
2022/08/13 05:25:54;;;;;;;5.28;2.67;;;;;;;29.64;47.08;100500.78;2096398;28;20041;-73
2022/08/13 05:27:18;;;;;;;6.03;3.03;;;;;;;29.83;46.75;100498.56;2099539;28;20550;-74
2022/08/13 05:28:41;;;;;;;7.72;2.90;;;;;;;30.02;46.41;100499.06;2102626;28;20051;-74
2022/08/13 05:30:04;;;;;;;4.90;2.10;;;;;;;30.20;45.98;100501.47;2102351;28;20071;-74
2022/08/13 05:31:26;;;;;;;6.80;2.67;;;;;;;30.31;45.27;100496.16;2101479;28;20090;-74
2022/08/13 05:32:50;;;;;;;9.30;3.00;;;;;;;30.44;44.96;100492.44;2106710;28;20079;-74
2022/08/13 05:34:11;;;;;;;5.10;2.40;;;;;;;30.61;44.74;100496.72;2102537;28;20048;-74
2022/08/13 05:35:35;;;;;;;3.40;2.13;;;;;;;30.78;43.99;100499.13;2107727;28;20071;-74
2022/08/13 05:36:57;;;;;;;6.65;2.25;;;;;;;30.89;43.68;100501.94;2111103;28;20500;-74
2022/08/13 05:38:21;;;;;;;4.47;2.10;;;;;;;30.99;43.55;100501.22;2102117;28;20488;-73
2022/08/13 05:39:45;;;;;;;6.05;2.47;;;;;;;31.13;43.16;100506.56;2099765;28;20097;-74
2022/08/13 05:41:10;;;;;;;4.78;2.60;;;;;;;31.23;42.84;100494.88;2095899;28;20105;-74
2022/08/13 05:42:39;;;;;;;8.43;2.60;;;;;;;31.23;42.64;100496.75;2117019;27;20156;-73
2022/08/13 05:44:01;;;;;;;6.28;2.60;;;;;;;31.23;43.06;100497.63;2106493;28;20399;-74
2022/08/13 05:45:23;;;;;;;4.57;2.40;;;;;;;31.31;42.76;100499.75;2104972;28;20068;-74
2022/08/13 05:46:45;;;;;;;5.53;2.67;;;;;;;31.42;42.60;100502.56;2117480;27;20724;-74
2022/08/13 05:48:07;;;;;;;6.03;2.65;;;;;;;31.55;42.31;100499.78;2106468;28;20092;-74
2022/08/13 05:49:30;;;;;;;3.60;2.10;;;;;;;31.72;42.21;100501.25;2102253;28;20155;-73
2022/08/13 05:50:52;;;;;;;5.22;2.20;;;;;;;31.79;41.76;100505.25;2100982;28;20047;-74
2022/08/13 05:52:14;;;;;;;4.25;2.47;;;;;;;31.87;41.57;100500.94;2101763;28;20499;-74
2022/08/13 05:53:37;;;;;;;;;;;;;;;31.88;41.56;100510.00;2102136;28;20139;-74
2022/08/13 05:54:58;;;;;;;4.30;2.38;;;;;;;32.03;41.78;100501.47;2102306;28;20310;-74
2022/08/13 05:56:22;;;;;;;7.53;2.78;;;;;;;32.12;41.69;100502.63;2101566;28;20058;-74
2022/08/13 05:57:46;;;;;;;5.78;2.55;;;;;;;32.28;41.27;100508.69;2108707;28;20044;-74
2022/08/13 06:03:22;;;;;;;4.85;2.45;;;;;;;32.41;41.03;100509.44;2096578;28;20057;-73
2022/08/13 06:04:10;;;;;;;6.72;2.42;;;;;;;32.70;41.46;100514.47;2081429;28;20061;-74
2022/08/13 06:05:32;;;;;;;5.00;2.50;;;;;;;32.73;40.95;100514.22;2098784;28;20048;-74
2022/08/13 06:06:56;;;;;;;6.68;2.65;;;;;;;32.77;41.10;100508.38;2101237;28;20043;-74
2022/08/13 06:08:19;;;;;;;5.45;2.55;;;;;;;32.92;40.79;100502.66;2104503;28;20545;-74
2022/08/13 06:09:40;;;;;;;5.00;2.58;;;;;;;33.04;40.71;100504.38;2103717;28;20028;-73
2022/08/13 06:11:05;;;;;;;4.75;2.38;;;;;;;33.10;40.88;100507.50;2101116;28;20052;-74
2022/08/13 06:12:28;;;;;;;6.22;2.55;;;;;;;33.15;40.54;100501.63;2102564;28;20576;-74
2022/08/13 06:13:53;;;;;;;7.20;2.55;;;;;;;33.18;40.37;100505.00;2099810;28;20052;-74
2022/08/13 06:15:15;;;;;;;4.43;2.20;;;;;;;33.22;40.25;100506.50;2110486;28;20048;-75
2022/08/13 06:16:37;;;;;;;5.68;2.20;;;;;;;33.31;40.13;100504.88;2103808;28;20503;-74
2022/08/13 06:18:00;;;;;;;4.38;2.50;;;;;;;33.46;40.20;100502.72;2118639;27;20047;-74
2022/08/13 06:19:22;;;;;;;8.63;3.85;;;;;;;33.60;39.85;100499.69;2100674;28;20537;-74
2022/08/13 06:20:45;;;;;;;4.38;2.45;;;;;;;33.65;39.09;100502.91;2107568;27;20515;-74
2022/08/13 06:22:07;;;;;;;7.57;2.40;;;;;;;33.71;38.73;100502.44;2097472;28;20067;-74
2022/08/13 06:23:31;;;;;;;5.40;2.58;;;;;;;33.80;38.30;100498.03;2100723;28;20043;-74
2022/08/13 06:24:53;;;;;;;3.70;2.30;;;;;;;33.83;38.14;100504.13;2095874;28;20125;-75
2022/08/13 06:26:16;;;;;;;8.93;2.15;;;;;;;33.91;37.76;100506.19;2106194;28;20063;-74
2022/08/13 06:27:39;;;;;;;4.78;2.20;;;;;;;33.98;37.29;100504.66;2102705;28;20423;-73
2022/08/13 06:29:05;;;;;;;4.72;2.30;;;;;;;34.00;37.14;100498.03;2109581;28;20138;-73
2022/08/13 06:30:30;;;;;;;5.60;2.17;;;;;;;33.98;36.90;100504.66;2095737;28;20139;-74
2022/08/13 06:31:53;;;;;;;4.25;2.40;;;;;;;33.98;36.63;100505.53;2095099;28;20036;-73
2022/08/13 06:33:17;;;;;;;3.85;2.22;;;;;;;34.00;37.00;100494.47;2087248;28;20044;-73
2022/08/13 06:34:41;;;;;;;4.57;2.10;;;;;;;33.99;37.38;100503.69;2110021;28;20222;-73
2022/08/13 06:36:07;;;;;;;4.28;2.53;;;;;;;33.94;37.42;100515.00;2105779;28;20052;-73
2022/08/13 06:37:28;;;;;;;4.65;2.30;;;;;;;33.84;37.79;100511.34;2104252;28;20036;-73
2022/08/13 06:38:52;;;;;;;6.50;2.65;;;;;;;33.84;38.25;100505.84;2101214;28;20405;-73